createdAt,value
2018-12-31T00:00:56.102Z,14.03
2018-12-31T00:05:55.652Z,18.57
2018-12-31T00:10:55.247Z,5.43
2018-12-31T00:15:54.761Z,14.20
2018-12-31T00:20:54.389Z,15.20
2018-12-31T00:25:53.918Z,19.13
2018-12-31T00:30:53.471Z,14.50
2018-12-31T00:35:53.006Z,7.70
2018-12-31T00:40:52.543Z,13.07
2018-12-31T00:45:52.086Z,12.20
2018-12-31T00:50:51.605Z,8.80
2018-12-31T00:55:51.261Z,14.50
2018-12-31T01:00:50.812Z,13.70
2018-12-31T01:05:50.379Z,20.80
2018-12-31T01:10:50.006Z,8.13
2018-12-31T01:15:49.550Z,12.10
2018-12-31T01:20:49.090Z,15.60
2018-12-31T01:25:48.627Z,11.90
2018-12-31T01:30:48.174Z,6.90
2018-12-31T01:35:47.735Z,7.03
2018-12-31T01:40:47.610Z,8.50
2018-12-31T01:45:47.187Z,6.83
2018-12-31T01:50:46.723Z,12.20
2018-12-31T01:55:46.277Z,10.33
2018-12-31T02:00:45.819Z,18.43
2018-12-31T02:05:45.368Z,5.00
2018-12-31T02:10:44.914Z,19.63
2018-12-31T02:15:44.459Z,9.73
2018-12-31T02:20:44.082Z,9.33
2018-12-31T02:25:43.625Z,14.83
2018-12-31T02:30:43.184Z,24.63
2018-12-31T02:35:42.720Z,9.50
2018-12-31T02:40:42.282Z,15.10
2018-12-31T02:45:41.854Z,18.23
2018-12-31T02:50:41.395Z,10.00
2018-12-31T02:55:40.945Z,17.87
2018-12-31T03:00:40.489Z,8.13
2018-12-31T03:05:40.033Z,10.90
2018-12-31T03:10:39.571Z,16.77
2018-12-31T03:15:39.104Z,10.07
2018-12-31T03:20:38.664Z,6.40
2018-12-31T03:25:38.202Z,24.00
2018-12-31T03:30:37.739Z,8.87
2018-12-31T03:35:37.274Z,13.40
2018-12-31T03:40:36.908Z,22.67
2018-12-31T03:45:36.451Z,8.60
2018-12-31T03:50:36.047Z,16.23
2018-12-31T03:55:37.284Z,11.07
2018-12-31T04:00:36.926Z,13.67
2018-12-31T04:05:36.505Z,14.30
2018-12-31T04:10:36.109Z,28.13
2018-12-31T04:15:35.651Z,18.90
2018-12-31T04:20:35.196Z,19.80
2018-12-31T04:25:34.734Z,19.20
2018-12-31T04:30:34.270Z,16.10
2018-12-31T04:35:33.803Z,28.37
2018-12-31T04:40:33.346Z,28.00
2018-12-31T04:45:32.910Z,12.00
2018-12-31T04:50:32.453Z,17.87
2018-12-31T04:55:31.987Z,15.40
2018-12-31T05:00:31.530Z,20.30
2018-12-31T05:05:31.085Z,18.07
2018-12-31T05:10:30.622Z,26.30
2018-12-31T05:15:30.369Z,20.10
2018-12-31T05:20:30.019Z,20.73
2018-12-31T05:25:29.546Z,16.33
2018-12-31T05:30:29.085Z,32.47
2018-12-31T05:35:28.617Z,18.63
2018-12-31T05:40:28.147Z,17.37
2018-12-31T05:45:27.690Z,20.60
2018-12-31T05:50:27.263Z,15.53
2018-12-31T05:55:26.800Z,19.93
2018-12-31T06:00:26.363Z,27.00
2018-12-31T06:05:25.900Z,21.03
2018-12-31T06:10:25.434Z,23.23
2018-12-31T06:15:25.004Z,28.00
2018-12-31T06:20:24.551Z,25.53
2018-12-31T06:25:24.092Z,17.83
2018-12-31T06:30:23.617Z,20.50
2018-12-31T06:35:23.151Z,23.90
2018-12-31T06:40:22.695Z,24.10
2018-12-31T06:45:22.228Z,22.77
2018-12-31T06:50:21.819Z,26.37
2018-12-31T06:55:21.386Z,26.20
2018-12-31T07:00:20.918Z,16.97
2018-12-31T07:05:20.462Z,31.60
2018-12-31T07:10:20.024Z,26.60
2018-12-31T07:15:19.546Z,28.30
2018-12-31T07:20:19.094Z,32.63
2018-12-31T07:25:18.659Z,18.27
2018-12-31T07:30:18.242Z,36.10
2018-12-31T07:35:17.823Z,28.23
2018-12-31T07:40:17.367Z,23.13
2018-12-31T07:45:17.112Z,30.70
2018-12-31T07:50:18.821Z,39.27
2018-12-31T07:55:18.383Z,24.60
2018-12-31T08:00:17.994Z,16.80
2018-12-31T08:05:17.548Z,19.53
2018-12-31T08:10:17.082Z,37.13
2018-12-31T08:15:16.628Z,37.90
2018-12-31T08:20:16.182Z,46.77
2018-12-31T08:25:15.713Z,30.00
2018-12-31T08:30:15.250Z,19.30
2018-12-31T08:35:14.799Z,35.90
2018-12-31T08:40:14.339Z,26.93
2018-12-31T08:45:13.878Z,38.77
2018-12-31T08:50:13.428Z,23.67
2018-12-31T08:55:13.069Z,28.37
2018-12-31T09:00:12.610Z,22.07
2018-12-31T09:05:12.154Z,25.23
2018-12-31T09:10:11.687Z,22.23
2018-12-31T09:15:11.403Z,26.93
2018-12-31T09:20:10.951Z,26.83
2018-12-31T09:25:10.487Z,19.70
2018-12-31T09:30:10.054Z,21.40
2018-12-31T09:35:09.586Z,16.90
2018-12-31T09:40:09.393Z,29.30
2018-12-31T09:45:08.940Z,26.70
2018-12-31T09:50:27.729Z,21.83
2018-12-31T09:55:27.257Z,20.13
2018-12-31T10:00:26.791Z,12.33
2018-12-31T10:05:27.303Z,22.40
2018-12-31T10:10:26.833Z,24.77
2018-12-31T10:15:26.385Z,13.57
2018-12-31T10:20:25.921Z,20.37
2018-12-31T10:25:25.486Z,18.10
2018-12-31T10:30:25.033Z,14.27
2018-12-31T10:35:24.670Z,21.30
2018-12-31T10:40:24.219Z,15.60
2018-12-31T10:45:23.803Z,9.10
2018-12-31T10:50:23.513Z,15.93
2018-12-31T10:55:23.186Z,11.67
2018-12-31T11:00:22.727Z,11.57
2018-12-31T11:05:22.265Z,13.17
2018-12-31T11:10:21.798Z,12.40
2018-12-31T11:15:21.330Z,16.93
2018-12-31T11:20:20.880Z,25.20
2018-12-31T11:25:20.414Z,13.93
2018-12-31T11:30:19.960Z,21.83
2018-12-31T11:35:19.503Z,9.53
2018-12-31T11:40:19.038Z,17.10
2018-12-31T11:45:18.574Z,17.30
2018-12-31T11:50:18.103Z,8.93
2018-12-31T11:55:17.638Z,12.63
2018-12-31T12:00:17.251Z,11.43
2018-12-31T12:05:16.796Z,10.17
2018-12-31T12:10:16.327Z,13.77
2018-12-31T12:15:15.877Z,9.27
2018-12-31T12:20:15.503Z,11.40
2018-12-31T12:25:15.203Z,16.53
2018-12-31T12:30:14.751Z,9.37
2018-12-31T12:35:14.568Z,9.50
2018-12-31T12:40:14.175Z,13.23
2018-12-31T12:45:13.731Z,13.70
2018-12-31T12:50:13.337Z,12.40
2018-12-31T12:55:12.876Z,11.87
2018-12-31T13:00:12.414Z,18.47
2018-12-31T13:05:11.955Z,16.87
2018-12-31T13:10:11.784Z,17.67
2018-12-31T13:15:11.356Z,13.70
2018-12-31T13:20:10.978Z,9.07
2018-12-31T13:25:10.515Z,8.67
2018-12-31T13:30:10.468Z,4.33
2018-12-31T13:35:10.221Z,4.67
2018-12-31T13:40:09.788Z,16.93
2018-12-31T13:45:09.918Z,5.97
2018-12-31T13:50:09.470Z,5.60
2018-12-31T13:55:09.002Z,9.00
2018-12-31T14:00:09.247Z,5.03
2018-12-31T14:05:08.903Z,14.83
2018-12-31T14:10:08.728Z,6.30
2018-12-31T14:15:08.506Z,21.10
2018-12-31T14:20:08.142Z,15.43
2018-12-31T14:25:07.691Z,10.77
2018-12-31T14:30:09.140Z,12.63
2018-12-31T14:35:08.675Z,25.50
2018-12-31T14:40:08.694Z,9.60
2018-12-31T14:45:08.231Z,15.23
2018-12-31T14:50:07.855Z,15.27
2018-12-31T14:55:07.422Z,15.00
2018-12-31T15:00:09.881Z,12.20
2018-12-31T15:05:09.494Z,19.00
2018-12-31T15:10:09.696Z,25.53
2018-12-31T15:15:09.630Z,19.90
2018-12-31T15:20:10.378Z,24.60
2018-12-31T15:25:10.440Z,25.37
2018-12-31T15:30:10.267Z,24.00
2018-12-31T15:35:10.948Z,22.40
2018-12-31T15:40:10.971Z,28.43
2018-12-31T15:45:10.502Z,34.43
2018-12-31T15:50:10.077Z,31.53
2018-12-31T15:55:09.830Z,26.67
2018-12-31T16:00:10.463Z,34.97
2018-12-31T16:05:10.013Z,34.37
2018-12-31T16:10:09.672Z,35.28
2018-12-31T16:15:09.770Z,27.50
2018-12-31T16:20:09.539Z,32.43
2018-12-31T16:25:09.255Z,43.07
2018-12-31T16:30:08.831Z,39.73
2018-12-31T16:35:08.393Z,27.83
2018-12-31T16:40:08.195Z,30.03
2018-12-31T16:45:08.206Z,33.17
2018-12-31T16:50:08.204Z,30.57
2018-12-31T16:55:07.775Z,42.23
2018-12-31T17:00:07.776Z,37.00
2018-12-31T17:05:07.443Z,32.17
2018-12-31T17:10:09.204Z,37.03
2018-12-31T17:15:09.111Z,40.30
2018-12-31T17:20:08.671Z,40.60
2018-12-31T17:25:08.232Z,31.80
2018-12-31T17:30:08.139Z,58.10
2018-12-31T17:35:07.682Z,54.50
2018-12-31T17:40:07.479Z,52.17
2018-12-31T17:45:07.188Z,48.13
2018-12-31T17:50:07.099Z,46.67
2018-12-31T17:55:06.647Z,52.03
2018-12-31T18:00:08.171Z,46.77
2018-12-31T18:05:07.831Z,51.43
2018-12-31T18:10:08.831Z,50.90
2018-12-31T18:15:08.838Z,42.17
2018-12-31T18:20:09.676Z,52.03
2018-12-31T18:25:09.471Z,41.93
2018-12-31T18:30:10.191Z,58.70
2018-12-31T18:35:09.754Z,69.67
2018-12-31T18:40:09.412Z,80.77
2018-12-31T18:45:09.067Z,56.10
2018-12-31T18:50:08.951Z,84.13
2018-12-31T18:55:08.806Z,61.87
2018-12-31T19:00:10.250Z,69.53
2018-12-31T19:05:11.264Z,86.83
2018-12-31T19:10:14.307Z,60.70
2018-12-31T19:15:13.954Z,60.37
2018-12-31T19:20:26.499Z,67.90
2018-12-31T19:25:26.082Z,63.63
2018-12-31T19:30:25.623Z,73.50
2018-12-31T19:35:25.737Z,58.27
2018-12-31T19:40:25.331Z,69.67
2018-12-31T19:45:24.866Z,62.70
2018-12-31T19:50:25.209Z,44.67
2018-12-31T19:55:24.857Z,48.80
2018-12-31T20:00:24.504Z,76.13
2018-12-31T20:05:24.119Z,55.53
2018-12-31T20:10:23.687Z,59.03
2018-12-31T20:15:23.263Z,79.23
2018-12-31T20:20:22.906Z,74.73
2018-12-31T20:25:22.475Z,60.27
2018-12-31T20:30:22.011Z,41.30
2018-12-31T20:35:21.556Z,45.43
2018-12-31T20:40:21.175Z,60.27
2018-12-31T20:45:20.747Z,35.60
2018-12-31T20:50:20.476Z,47.00
2018-12-31T20:55:20.075Z,45.97
2018-12-31T21:00:19.616Z,38.93
2018-12-31T21:05:19.223Z,72.97
2018-12-31T21:10:18.764Z,49.37
2018-12-31T21:15:18.570Z,50.47
2018-12-31T21:20:30.229Z,52.13
2018-12-31T21:25:30.057Z,51.63
2018-12-31T21:30:29.596Z,52.20
2018-12-31T21:35:29.242Z,51.10
2018-12-31T21:40:28.838Z,61.40
2018-12-31T21:45:28.382Z,48.23
2018-12-31T21:50:28.107Z,42.23
2018-12-31T21:55:27.682Z,51.70
2018-12-31T22:00:27.243Z,45.10
2018-12-31T22:05:26.834Z,34.50
2018-12-31T22:10:26.375Z,33.60
2018-12-31T22:15:25.908Z,41.33
2018-12-31T22:20:25.508Z,32.20
2018-12-31T22:25:25.034Z,32.60
2018-12-31T22:30:24.642Z,40.97
2018-12-31T22:35:24.187Z,106.43
2018-12-31T22:40:23.760Z,51.50
2018-12-31T22:45:23.298Z,39.53
2018-12-31T22:50:23.003Z,57.37
2018-12-31T22:55:22.610Z,74.70
2018-12-31T23:00:26.734Z,60.20
2018-12-31T23:05:29.159Z,137.97
2018-12-31T23:10:28.712Z,348.70
2018-12-31T23:15:28.918Z,418.53
2018-12-31T23:20:28.550Z,368.17
2018-12-31T23:25:28.482Z,437.47
2018-12-31T23:30:28.112Z,366.23
2018-12-31T23:35:27.662Z,372.33
2018-12-31T23:40:27.205Z,240.40
2018-12-31T23:45:26.778Z,211.40
2018-12-31T23:50:27.587Z,169.47
2018-12-31T23:55:27.144Z,121.20
